Time;durP1;ratioP1;P1;durP2;ratioP2;P2;SDS_P1;SDS_P2;PMS_P1;PMS_P2;Temp;Humidity;BMP_temperature;BMP_pressure;BME280_temperature;BME280_humidity;BME280_pressure;Samples;Min_cycle;Max_cycle;Signal;HPM_P1;HPM_P2
2020/12/31 00:00:38;;;;;;;9.20;6.60;;;6.10;94.00;;;;;;5087124;28;20477;-70
2020/12/31 00:03:04;;;;;;;10.80;6.38;;;6.10;94.00;;;;;;5083924;28;20028;-70
2020/12/31 00:05:29;;;;;;;10.75;6.40;;;6.20;94.00;;;;;;5076484;28;20476;-70
2020/12/31 00:07:55;;;;;;;9.07;6.18;;;6.10;93.90;;;;;;5084527;28;20027;-71
2020/12/31 00:10:20;;;;;;;11.52;6.55;;;6.10;93.90;;;;;;5074006;28;20451;-70
2020/12/31 00:12:46;;;;;;;10.75;6.20;;;6.10;93.90;;;;;;5073157;28;20032;-69
2020/12/31 00:15:11;;;;;;;10.18;6.80;;;6.00;93.80;;;;;;5076331;28;20467;-69
2020/12/31 00:17:37;;;;;;;8.65;6.47;;;6.00;93.80;;;;;;5072108;28;20029;-69
2020/12/31 00:20:04;;;;;;;9.27;5.90;;;6.00;93.80;;;;;;5073255;28;20471;-69
2020/12/31 00:22:30;;;;;;;8.77;6.22;;;6.00;93.90;;;;;;5073017;28;20036;-69
2020/12/31 00:24:55;;;;;;;7.05;5.30;;;5.90;93.90;;;;;;5076830;28;20027;-69
2020/12/31 00:27:21;;;;;;;11.50;6.47;;;6.00;93.90;;;;;;5073179;28;20040;-69
2020/12/31 00:29:46;;;;;;;9.77;6.50;;;6.00;93.90;;;;;;5080714;28;20519;-69
2020/12/31 00:32:12;;;;;;;12.77;6.85;;;6.00;94.00;;;;;;5088982;28;20040;-69
2020/12/31 00:34:37;;;;;;;10.38;6.53;;;6.00;94.00;;;;;;5083066;28;20016;-68
2020/12/31 00:37:03;;;;;;;17.30;7.20;;;5.90;94.00;;;;;;5074194;28;20113;-70
2020/12/31 00:39:30;;;;;;;10.88;7.22;;;5.90;94.00;;;;;;5080685;28;20743;-69
2020/12/31 00:41:55;;;;;;;8.65;6.20;;;6.00;94.00;;;;;;5091955;28;20031;-69
2020/12/31 00:44:21;;;;;;;9.88;6.45;;;6.00;94.10;;;;;;5080139;28;20380;-69
2020/12/31 00:46:46;;;;;;;9.10;6.45;;;6.00;94.00;;;;;;5093740;28;20017;-69
2020/12/31 00:49:12;;;;;;;9.93;6.55;;;6.00;94.00;;;;;;5072850;28;20041;-69
2020/12/31 00:51:37;;;;;;;9.98;7.10;;;6.00;94.00;;;;;;5081822;28;20115;-69
2020/12/31 00:54:03;;;;;;;10.57;7.07;;;6.00;93.90;;;;;;5077401;28;20044;-69
2020/12/31 00:56:28;;;;;;;12.07;7.45;;;6.00;93.90;;;;;;5091746;28;20028;-69
2020/12/31 00:58:54;;;;;;;11.18;6.68;;;6.00;93.90;;;;;;5090505;28;20024;-69
2020/12/31 01:01:20;;;;;;;11.30;6.55;;;6.00;93.90;;;;;;5091626;28;20055;-69
2020/12/31 01:03:45;;;;;;;9.75;6.45;;;6.00;93.90;;;;;;5078710;28;20024;-70
2020/12/31 01:06:11;;;;;;;10.48;6.18;;;6.00;93.90;;;;;;5092827;28;20058;-69
2020/12/31 01:08:36;;;;;;;8.68;6.03;;;5.90;93.90;;;;;;5078071;28;20811;-69
2020/12/31 01:11:02;;;;;;;9.45;6.45;;;6.00;93.90;;;;;;5072281;28;20035;-70
2020/12/31 01:13:28;;;;;;;9.23;6.30;;;6.00;93.80;;;;;;5077164;28;20024;-70
2020/12/31 01:15:53;;;;;;;9.90;6.25;;;6.00;93.90;;;;;;5092718;28;20065;-70
2020/12/31 01:18:19;;;;;;;8.93;6.35;;;6.00;93.90;;;;;;5080590;28;20035;-70
2020/12/31 01:20:44;;;;;;;9.00;5.97;;;5.90;93.90;;;;;;5072236;28;20013;-69
2020/12/31 01:23:10;;;;;;;9.82;5.88;;;6.00;93.90;;;;;;5071898;28;20157;-69
2020/12/31 01:25:35;;;;;;;9.52;5.93;;;5.90;93.90;;;;;;5070960;28;20021;-69
2020/12/31 01:28:01;;;;;;;10.57;6.63;;;5.90;93.90;;;;;;5074434;28;20035;-70
2020/12/31 01:30:27;;;;;;;10.60;6.40;;;5.90;93.90;;;;;;5092488;28;20020;-69
2020/12/31 01:32:53;;;;;;;8.63;5.78;;;6.00;93.90;;;;;;5082157;28;20024;-70
2020/12/31 01:35:19;;;;;;;9.52;6.35;;;6.00;93.90;;;;;;5072234;28;20025;-70
2020/12/31 01:37:44;;;;;;;8.77;6.18;;;6.00;93.90;;;;;;5072438;28;20039;-69
2020/12/31 01:40:10;;;;;;;10.82;6.15;;;6.00;93.90;;;;;;5087675;28;20089;-70
2020/12/31 01:42:41;;;;;;;10.05;5.90;;;6.00;93.90;;;;;;5071075;28;20103;-69
2020/12/31 01:45:07;;;;;;;7.85;5.70;;;6.00;93.90;;;;;;5073296;28;20412;-69
2020/12/31 01:47:33;;;;;;;9.32;6.35;;;6.00;93.90;;;;;;5072142;28;20028;-69
2020/12/31 01:49:59;;;;;;;10.13;6.43;;;6.00;93.90;;;;;;5090875;28;20032;-69
2020/12/31 01:52:25;;;;;;;9.73;6.25;;;6.00;93.90;;;;;;5078996;28;20035;-69
2020/12/31 01:54:51;;;;;;;11.55;7.28;;;6.00;93.90;;;;;;5070210;28;20654;-69
2020/12/31 01:57:17;;;;;;;7.93;5.47;;;6.10;93.90;;;;;;5072333;28;20063;-69
2020/12/31 01:59:43;;;;;;;10.18;5.82;;;6.10;93.80;;;;;;5086268;28;20520;-69
2020/12/31 02:02:09;;;;;;;9.05;6.50;;;6.00;93.80;;;;;;5081673;28;20029;-70
2020/12/31 02:04:36;;;;;;;10.25;6.35;;;6.00;93.80;;;;;;5075424;28;20025;-69
2020/12/31 02:07:02;;;;;;;10.43;6.03;;;6.00;93.90;;;;;;5075103;28;20529;-70
2020/12/31 02:09:29;;;;;;;10.02;6.63;;;6.00;93.90;;;;;;5075175;28;20028;-70
2020/12/31 02:11:54;;;;;;;9.80;6.40;;;6.00;93.90;;;;;;5083419;28;20024;-70
2020/12/31 02:14:20;;;;;;;8.50;5.90;;;6.10;93.90;;;;;;5086583;28;20051;-69
2020/12/31 02:16:46;;;;;;;9.85;5.72;;;6.00;93.90;;;;;;5076027;28;20060;-69
2020/12/31 02:19:13;;;;;;;10.98;6.25;;;6.10;93.90;;;;;;5085703;28;20024;-70
2020/12/31 02:21:43;;;;;;;11.95;6.78;;;6.10;93.80;;;;;;5069848;28;20047;-70
2020/12/31 02:24:08;;;;;;;11.02;6.35;;;6.10;93.80;;;;;;5071118;28;20048;-69
2020/12/31 02:26:36;;;;;;;9.02;5.70;;;6.10;93.80;;;;;;5071270;28;20032;-70
2020/12/31 02:29:04;;;;;;;10.05;6.68;;;6.10;93.80;;;;;;5070819;28;20109;-70
2020/12/31 02:31:30;;;;;;;9.88;6.07;;;6.10;93.70;;;;;;5071019;28;20036;-70
2020/12/31 02:33:56;;;;;;;9.23;5.70;;;6.20;93.80;;;;;;5082125;28;20027;-70
2020/12/31 02:36:28;;;;;;;9.95;6.00;;;6.10;93.70;;;;;;5078664;28;20035;-70
2020/12/31 02:38:56;;;;;;;10.68;6.15;;;6.10;93.80;;;;;;5089104;28;20031;-70
2020/12/31 02:41:22;;;;;;;8.57;6.15;;;6.10;93.80;;;;;;5083174;28;20024;-69
2020/12/31 02:43:47;;;;;;;10.48;6.63;;;6.10;93.80;;;;;;5092220;28;20028;-70
2020/12/31 02:46:15;;;;;;;10.57;6.32;;;6.10;93.80;;;;;;5077794;28;20400;-70
2020/12/31 02:48:41;;;;;;;10.98;7.80;;;6.10;93.80;;;;;;5075084;28;20021;-70
2020/12/31 02:51:07;;;;;;;10.80;6.53;;;6.00;93.80;;;;;;5080852;28;20643;-70
2020/12/31 02:53:33;;;;;;;10.38;7.32;;;6.10;93.80;;;;;;5095355;28;20050;-70
2020/12/31 02:55:59;;;;;;;10.52;7.05;;;6.10;93.80;;;;;;5078992;28;20040;-70
2020/12/31 02:58:25;;;;;;;8.93;6.20;;;6.10;93.80;;;;;;5094491;28;20071;-70
2020/12/31 03:00:51;;;;;;;9.13;6.32;;;6.10;93.80;;;;;;5084379;28;20047;-70
2020/12/31 03:03:17;;;;;;;10.57;6.38;;;6.10;93.80;;;;;;5080086;28;20028;-70
2020/12/31 03:05:42;;;;;;;9.68;6.30;;;6.10;93.70;;;;;;5075768;28;20028;-70
2020/12/31 03:08:08;;;;;;;9.80;6.63;;;6.10;93.70;;;;;;5090449;28;20064;-70
2020/12/31 03:10:33;;;;;;;8.98;6.57;;;6.10;93.60;;;;;;5074654;28;20032;-70
2020/12/31 03:12:58;;;;;;;9.93;6.38;;;6.10;93.70;;;;;;5088273;28;20024;-70
2020/12/31 03:15:24;;;;;;;9.23;6.20;;;6.10;93.60;;;;;;5074905;28;20493;-70
2020/12/31 03:17:50;;;;;;;10.27;5.85;;;6.10;93.60;;;;;;5092026;28;20472;-70
2020/12/31 03:20:15;;;;;;;8.48;5.80;;;6.10;93.60;;;;;;5074207;28;20016;-70
2020/12/31 03:22:41;;;;;;;11.02;6.93;;;6.10;93.60;;;;;;5091769;28;20400;-70
2020/12/31 03:25:07;;;;;;;9.10;6.45;;;6.10;93.60;;;;;;5080130;28;20420;-70
2020/12/31 03:27:33;;;;;;;9.38;6.22;;;6.00;93.60;;;;;;5074626;28;20103;-70
2020/12/31 03:29:59;;;;;;;9.60;6.78;;;6.00;93.60;;;;;;5084628;28;20116;-70
2020/12/31 03:32:24;;;;;;;10.80;6.85;;;6.00;93.60;;;;;;5094100;28;20451;-69
2020/12/31 03:34:50;;;;;;;9.93;6.40;;;5.90;93.60;;;;;;5081289;28;20088;-69
2020/12/31 03:37:16;;;;;;;9.63;6.85;;;6.00;93.60;;;;;;5074479;28;20060;-70
2020/12/31 03:39:41;;;;;;;9.93;6.82;;;5.90;93.60;;;;;;5081141;28;20476;-70
2020/12/31 03:42:07;;;;;;;10.80;6.40;;;6.00;93.60;;;;;;5094216;28;20039;-69
2020/12/31 03:44:33;;;;;;;8.88;6.18;;;6.00;93.70;;;;;;5083945;28;20588;-70
2020/12/31 03:46:59;;;;;;;11.90;6.88;;;6.00;93.70;;;;;;5074012;28;20025;-70
2020/12/31 03:49:24;;;;;;;8.73;6.53;;;6.00;93.60;;;;;;5078595;28;20493;-70
2020/12/31 03:51:50;;;;;;;10.18;6.85;;;6.00;93.60;;;;;;5090006;28;20020;-70
2020/12/31 03:54:15;;;;;;;8.60;5.95;;;6.00;93.60;;;;;;5088454;28;20039;-71
2020/12/31 03:56:41;;;;;;;8.43;6.07;;;6.00;93.60;;;;;;5073069;28;20111;-71
2020/12/31 03:59:07;;;;;;;9.10;6.53;;;6.00;93.50;;;;;;5073711;28;20040;-70
2020/12/31 04:01:33;;;;;;;9.95;6.65;;;6.00;93.50;;;;;;5073499;28;20094;-69
2020/12/31 04:03:59;;;;;;;9.68;6.43;;;6.00;93.50;;;;;;5082678;28;20024;-70
2020/12/31 04:06:25;;;;;;;10.20;7.57;;;6.00;93.50;;;;;;5093885;28;20039;-70
2020/12/31 04:08:51;;;;;;;9.20;6.43;;;6.00;93.60;;;;;;5082653;28;20143;-70
2020/12/31 04:11:16;;;;;;;9.93;6.82;;;6.00;93.60;;;;;;5094179;28;20024;-70
2020/12/31 04:13:42;;;;;;;11.00;6.95;;;6.00;93.60;;;;;;5076455;28;20036;-70
2020/12/31 04:16:07;;;;;;;10.65;6.50;;;6.00;93.60;;;;;;5084968;28;20048;-70
2020/12/31 04:18:33;;;;;;;9.90;5.95;;;6.00;93.60;;;;;;5086454;28;20071;-70
2020/12/31 04:20:58;;;;;;;8.93;6.13;;;6.00;93.70;;;;;;5077362;28;20032;-70
2020/12/31 04:23:24;;;;;;;11.40;7.28;;;6.00;93.70;;;;;;5082602;28;20506;-69
2020/12/31 04:25:50;;;;;;;11.65;6.45;;;6.00;93.70;;;;;;5098474;28;20027;-71
2020/12/31 04:28:16;;;;;;;9.02;6.20;;;6.00;93.70;;;;;;5086111;28;20020;-70
2020/12/31 04:30:45;;;;;;;10.68;6.80;;;6.10;93.80;;;;;;5073596;28;20016;-70
2020/12/31 04:33:11;;;;;;;9.98;6.47;;;6.10;93.80;;;;;;5073387;28;20043;-70
2020/12/31 04:35:36;;;;;;;10.15;6.65;;;6.00;93.80;;;;;;5073192;28;20413;-70
2020/12/31 04:38:02;;;;;;;9.23;6.57;;;6.10;93.80;;;;;;5075446;28;20410;-70
2020/12/31 04:40:27;;;;;;;10.45;6.30;;;6.10;93.80;;;;;;5073603;28;20027;-71
2020/12/31 04:42:54;;;;;;;11.85;6.63;;;6.20;93.80;;;;;;5071849;28;20096;-71
2020/12/31 04:45:20;;;;;;;9.38;6.57;;;6.20;93.80;;;;;;5073486;28;20029;-70
2020/12/31 04:48:08;;;;;;;9.93;6.93;;;6.20;94.10;;;;;;5075096;28;20033;-70
2020/12/31 04:50:39;;;;;;;10.02;6.90;;;6.20;93.90;;;;;;5072650;28;20431;-70
2020/12/31 04:53:07;;;;;;;9.25;6.07;;;6.20;94.00;;;;;;5083004;28;20039;-69
2020/12/31 04:55:39;;;;;;;14.05;6.88;;;6.20;94.00;;;;;;5093285;28;20092;-70
2020/12/31 04:58:05;;;;;;;9.00;6.38;;;6.20;94.00;;;;;;5081251;28;20036;-70
2020/12/31 05:00:30;;;;;;;9.32;6.30;;;6.20;94.10;;;;;;5072838;28;20095;-70
2020/12/31 05:02:56;;;;;;;9.48;6.63;;;6.20;94.10;;;;;;5075811;28;20059;-70
2020/12/31 05:05:24;;;;;;;11.48;7.05;;;6.20;94.10;;;;;;5072308;28;20115;-70
2020/12/31 05:07:50;;;;;;;11.18;6.50;;;6.10;94.20;;;;;;5054924;28;20106;-71
2020/12/31 05:10:16;;;;;;;8.43;6.35;;;6.10;94.20;;;;;;5071920;28;20040;-70
2020/12/31 05:12:41;;;;;;;11.85;6.50;;;6.10;94.30;;;;;;5071542;28;20032;-71
2020/12/31 05:15:07;;;;;;;10.98;7.05;;;6.10;94.30;;;;;;5087066;28;20030;-71
2020/12/31 05:17:32;;;;;;;9.70;6.60;;;6.10;94.40;;;;;;5075139;28;20036;-70
2020/12/31 05:19:58;;;;;;;11.90;7.35;;;6.10;94.30;;;;;;5073312;28;20070;-71
2020/12/31 05:22:23;;;;;;;11.60;7.80;;;6.10;94.30;;;;;;5091303;28;20040;-71
2020/12/31 05:24:51;;;;;;;11.27;7.22;;;6.10;94.30;;;;;;5074155;28;20025;-71
2020/12/31 05:27:26;;;;;;;10.90;7.28;;;6.10;94.30;;;;;;5091053;28;20074;-71
2020/12/31 05:29:59;;;;;;;9.77;6.93;;;6.00;94.30;;;;;;5073855;28;20500;-71
2020/12/31 05:32:36;;;;;;;9.10;6.75;;;6.00;94.30;;;;;;5090877;28;20032;-71
2020/12/31 05:35:13;;;;;;;11.27;7.32;;;6.00;94.30;;;;;;5089383;28;20503;-71
2020/12/31 05:37:38;;;;;;;10.40;6.78;;;6.00;94.30;;;;;;5071654;28;20043;-71
2020/12/31 05:40:09;;;;;;;10.77;6.82;;;6.00;94.30;;;;;;5072238;28;20036;-71
2020/12/31 05:42:37;;;;;;;9.63;6.45;;;5.90;94.30;;;;;;5072031;28;20043;-71
2020/12/31 05:45:18;;;;;;;11.48;7.30;;;5.90;94.20;;;;;;5084300;28;20028;-71
2020/12/31 05:47:52;;;;;;;10.65;7.47;;;5.90;94.20;;;;;;5090659;28;20036;-71
2020/12/31 05:50:21;;;;;;;10.85;7.15;;;5.80;94.20;;;;;;5088383;28;20483;-71
2020/12/31 05:52:47;;;;;;;11.10;6.82;;;5.80;94.20;;;;;;5090252;28;20046;-71
2020/12/31 05:55:15;;;;;;;11.77;6.65;;;5.80;94.10;;;;;;5090234;28;20058;-71
2020/12/31 05:57:46;;;;;;;10.35;6.50;;;5.80;94.20;;;;;;5090783;28;20042;-71
2020/12/31 06:00:14;;;;;;;10.50;6.57;;;5.80;94.10;;;;;;5075223;28;20415;-71
2020/12/31 06:02:49;;;;;;;11.05;7.43;;;5.70;94.10;;;;;;5071668;28;20028;-71
2020/12/31 06:05:15;;;;;;;10.77;7.22;;;5.60;94.30;;;;;;5082512;28;20043;-71
2020/12/31 06:07:46;;;;;;;10.85;7.05;;;5.60;94.10;;;;;;5071276;28;20392;-71
2020/12/31 06:10:16;;;;;;;11.07;6.65;;;5.60;94.10;;;;;;5087538;28;20115;-70
2020/12/31 06:12:49;;;;;;;10.80;6.82;;;5.50;94.10;;;;;;5084630;28;20032;-69
2020/12/31 06:15:20;;;;;;;10.25;6.53;;;5.50;94.10;;;;;;5070302;28;20040;-70
2020/12/31 06:17:48;;;;;;;10.70;6.60;;;5.50;94.10;;;;;;5071398;28;20045;-70
2020/12/31 06:20:16;;;;;;;11.85;7.22;;;5.40;94.10;;;;;;5071814;28;20025;-70
2020/12/31 06:23:01;;;;;;;9.60;6.95;;;5.30;94.10;;;;;;5073444;28;20107;-70
2020/12/31 06:25:36;;;;;;;10.18;7.32;;;5.30;94.10;;;;;;5071946;28;20050;-70
2020/12/31 06:28:22;;;;;;;10.80;6.72;;;5.30;94.20;;;;;;5080752;28;20644;-70
2020/12/31 06:30:53;;;;;;;10.65;7.07;;;5.20;94.20;;;;;;5071779;28;20032;-70
2020/12/31 06:33:43;;;;;;;9.93;6.80;;;5.20;94.20;;;;;;5077507;28;20028;-70
2020/12/31 06:36:09;;;;;;;10.88;6.95;;;5.20;94.30;;;;;;5071137;28;20040;-70
2020/12/31 06:38:36;;;;;;;12.70;7.65;;;5.20;94.30;;;;;;5083204;28;20041;-69
2020/12/31 06:41:04;;;;;;;11.85;7.32;;;5.20;94.40;;;;;;5091215;28;20064;-69
2020/12/31 06:43:31;;;;;;;11.27;7.55;;;5.10;94.50;;;;;;5072131;28;20029;-70
2020/12/31 06:45:58;;;;;;;12.68;7.80;;;5.10;94.50;;;;;;5071351;28;20021;-70
2020/12/31 06:48:26;;;;;;;11.23;7.13;;;5.20;94.50;;;;;;5078320;28;20068;-69
2020/12/31 06:51:08;;;;;;;12.40;7.15;;;5.10;94.40;;;;;;5073471;28;20408;-70
2020/12/31 06:53:39;;;;;;;10.65;6.80;;;5.10;94.40;;;;;;5082686;28;20036;-69
2020/12/31 06:56:13;;;;;;;10.70;6.63;;;5.10;94.40;;;;;;5092709;28;20031;-69
2020/12/31 06:58:39;;;;;;;13.20;7.60;;;5.10;94.40;;;;;;5070564;28;20075;-69
2020/12/31 07:01:27;;;;;;;11.13;7.03;;;5.00;94.40;;;;;;5073247;28;20052;-71
2020/12/31 07:03:53;;;;;;;11.30;6.97;;;5.00;94.40;;;;;;5071329;28;20408;-70
2020/12/31 07:06:22;;;;;;;9.93;6.53;;;5.00;94.40;;;;;;5084505;28;20039;-70
2020/12/31 07:08:53;;;;;;;13.20;6.97;;;5.00;94.40;;;;;;5070219;28;20021;-70
2020/12/31 07:11:38;;;;;;;11.77;7.20;;;5.00;94.40;;;;;;5072057;28;20484;-70
2020/12/31 07:14:25;;;;;;;10.63;6.95;;;5.00;94.40;;;;;;5074343;28;20077;-70
2020/12/31 07:16:53;;;;;;;11.63;7.57;;;5.00;94.30;;;;;;5084955;28;20040;-69
2020/12/31 07:19:21;;;;;;;10.98;7.18;;;5.00;94.40;;;;;;5079160;28;20056;-70
2020/12/31 07:21:50;;;;;;;10.93;6.68;;;5.00;94.40;;;;;;5087866;28;20062;-70
2020/12/31 07:24:29;;;;;;;12.25;7.20;;;5.00;94.40;;;;;;5070263;28;20036;-69
2020/12/31 07:26:57;;;;;;;12.32;7.57;;;5.00;94.40;;;;;;5085916;28;20028;-70
2020/12/31 07:29:30;;;;;;;9.90;7.20;;;4.90;94.30;;;;;;5085050;28;20024;-70
2020/12/31 07:31:57;;;;;;;12.07;6.93;;;4.90;94.30;;;;;;5094685;28;20036;-71
2020/12/31 07:34:30;;;;;;;10.77;7.00;;;4.90;94.20;;;;;;5086348;28;20492;-70
2020/12/31 07:37:00;;;;;;;12.40;6.88;;;4.90;94.20;;;;;;5074311;28;20115;-70
2020/12/31 07:39:27;;;;;;;10.52;7.43;;;4.90;94.20;;;;;;5085820;28;20024;-70
2020/12/31 07:42:11;;;;;;;10.45;6.75;;;4.90;94.20;;;;;;5074073;28;20039;-70
2020/12/31 07:44:48;;;;;;;12.27;7.32;;;4.90;94.20;;;;;;5078344;28;20020;-70
2020/12/31 07:47:14;;;;;;;10.55;6.78;;;4.90;94.30;;;;;;5074293;28;20094;-69
2020/12/31 07:49:47;;;;;;;9.75;6.30;;;4.90;94.30;;;;;;5078289;28;20032;-70
2020/12/31 07:52:13;;;;;;;10.52;6.07;;;4.90;94.20;;;;;;5074159;28;20068;-71
2020/12/31 07:54:39;;;;;;;11.32;6.82;;;5.00;94.30;;;;;;5087680;28;20079;-70
2020/12/31 07:57:05;;;;;;;9.05;6.18;;;5.00;94.20;;;;;;5093712;28;20044;-70
2020/12/31 07:59:31;;;;;;;10.57;6.68;;;5.00;94.30;;;;;;5083198;28;20031;-71
2020/12/31 08:02:03;;;;;;;10.25;6.32;;;5.00;94.30;;;;;;5091446;28;20032;-70
2020/12/31 08:04:29;;;;;;;9.32;5.60;;;5.10;94.30;;;;;;5087020;28;20543;-70
2020/12/31 08:06:54;;;;;;;11.55;6.90;;;5.10;94.30;;;;;;5092357;28;20104;-70
2020/12/31 08:09:22;;;;;;;8.35;6.07;;;5.10;94.40;;;;;;5079381;28;20503;-70
2020/12/31 08:11:51;;;;;;;10.57;6.78;;;5.20;94.30;;;;;;5072273;28;20541;-70
2020/12/31 08:14:17;;;;;;;9.57;5.93;;;5.20;94.30;;;;;;5074432;28;20541;-70
2020/12/31 08:16:43;;;;;;;10.85;6.07;;;5.20;94.30;;;;;;5073345;28;20086;-70
2020/12/31 08:19:08;;;;;;;8.55;5.70;;;5.30;94.30;;;;;;5086510;28;20681;-70
2020/12/31 08:21:35;;;;;;;11.88;6.25;;;5.30;94.30;;;;;;5072968;28;20378;-70
2020/12/31 08:24:08;;;;;;;9.18;5.55;;;5.30;94.30;;;;;;5080718;28;20073;-70
2020/12/31 08:26:36;;;;;;;9.35;5.80;;;5.40;94.30;;;;;;5074261;28;20040;-72
2020/12/31 08:29:02;;;;;;;8.48;6.10;;;5.40;94.20;;;;;;5082615;28;20035;-71
2020/12/31 08:31:29;;;;;;;8.27;5.50;;;5.40;94.20;;;;;;5085971;28;20028;-70
2020/12/31 08:34:00;;;;;;;10.15;6.25;;;5.40;94.20;;;;;;5079378;28;20028;-70
2020/12/31 08:36:26;;;;;;;7.93;5.60;;;5.50;94.10;;;;;;5072152;28;20021;-70
2020/12/31 08:38:54;;;;;;;9.02;5.88;;;5.60;94.10;;;;;;5072424;28;20149;-70
2020/12/31 08:41:20;;;;;;;9.10;6.30;;;5.60;94.10;;;;;;5072291;28;20024;-70
2020/12/31 08:43:45;;;;;;;10.15;5.80;;;5.60;94.00;;;;;;5071979;28;20024;-70
2020/12/31 08:46:22;;;;;;;11.23;5.97;;;5.60;94.00;;;;;;5084965;28;20473;-70
2020/12/31 08:48:55;;;;;;;8.40;6.10;;;5.70;94.00;;;;;;5072978;28;20029;-69
2020/12/31 08:51:21;;;;;;;9.82;5.65;;;5.70;93.90;;;;;;5086823;28;20034;-70
2020/12/31 08:53:49;;;;;;;11.48;7.05;;;5.70;93.80;;;;;;5080249;28;20048;-70
2020/12/31 08:56:15;;;;;;;8.73;5.30;;;5.70;93.70;;;;;;5070910;28;20043;-70
2020/12/31 08:58:40;;;;;;;7.50;5.43;;;5.80;93.80;;;;;;5076696;28;20111;-70
2020/12/31 09:01:06;;;;;;;8.90;5.63;;;5.90;93.80;;;;;;5071884;28;20020;-69
2020/12/31 09:03:31;;;;;;;8.23;5.10;;;5.90;93.70;;;;;;5071388;28;20568;-70
2020/12/31 09:05:59;;;;;;;8.35;5.30;;;6.00;93.70;;;;;;5076294;28;20024;-70
2020/12/31 09:08:25;;;;;;;8.73;5.35;;;6.00;93.60;;;;;;5076518;28;20025;-69
2020/12/31 09:11:02;;;;;;;8.85;5.22;;;6.00;93.50;;;;;;5071455;28;20024;-69
2020/12/31 09:13:32;;;;;;;9.13;5.50;;;6.10;93.40;;;;;;5072312;28;20033;-69
2020/12/31 09:16:14;;;;;;;9.10;5.20;;;6.10;93.40;;;;;;5071773;28;20097;-69
2020/12/31 09:18:41;;;;;;;8.35;5.30;;;6.10;93.30;;;;;;5074789;28;20485;-69
2020/12/31 09:21:07;;;;;;;8.57;5.18;;;6.20;93.30;;;;;;5073932;28;20036;-69
2020/12/31 09:23:33;;;;;;;8.18;5.30;;;6.20;93.20;;;;;;5079002;28;20028;-69
2020/12/31 09:25:59;;;;;;;8.00;5.10;;;6.30;93.10;;;;;;5092447;28;20016;-69
2020/12/31 09:28:25;;;;;;;7.63;5.07;;;6.30;93.10;;;;;;5078872;28;20671;-70
2020/12/31 09:30:52;;;;;;;9.05;5.13;;;6.30;93.00;;;;;;5072043;28;20028;-70
2020/12/31 09:33:19;;;;;;;8.93;4.97;;;6.40;93.00;;;;;;5077186;28;20028;-69
2020/12/31 09:35:45;;;;;;;8.15;4.63;;;6.40;92.80;;;;;;5071480;28;20021;-69
2020/12/31 09:38:11;;;;;;;6.35;4.72;;;6.40;92.80;;;;;;5071363;28;20047;-69
2020/12/31 09:40:37;;;;;;;9.15;5.63;;;6.50;92.70;;;;;;5071944;28;20032;-69
2020/12/31 09:43:02;;;;;;;8.85;5.63;;;6.50;92.70;;;;;;5073463;28;20047;-68
2020/12/31 09:45:30;;;;;;;6.72;4.70;;;6.50;92.60;;;;;;5071852;28;20052;-69
2020/12/31 09:47:57;;;;;;;7.97;5.30;;;6.50;92.50;;;;;;5077272;28;20039;-69
2020/12/31 09:50:23;;;;;;;8.35;5.15;;;6.50;92.50;;;;;;5073777;28;20019;-69
2020/12/31 09:52:48;;;;;;;8.23;4.70;;;6.50;92.50;;;;;;5071141;28;20078;-69
2020/12/31 09:55:14;;;;;;;6.60;5.15;;;6.60;92.40;;;;;;5070050;28;20488;-69
2020/12/31 09:57:39;;;;;;;7.60;4.72;;;6.60;92.40;;;;;;5071605;28;20091;-69
2020/12/31 10:00:05;;;;;;;7.30;5.25;;;6.70;92.30;;;;;;5071620;28;20029;-70
2020/12/31 10:02:31;;;;;;;7.15;5.30;;;6.70;92.20;;;;;;5070039;28;20080;-69
2020/12/31 10:04:57;;;;;;;8.07;4.90;;;6.80;92.20;;;;;;5071996;28;20062;-69
2020/12/31 10:07:22;;;;;;;8.05;5.55;;;6.80;92.10;;;;;;5069906;28;20111;-69
2020/12/31 10:09:48;;;;;;;7.68;5.15;;;6.80;92.10;;;;;;5076985;28;20086;-70
2020/12/31 10:12:14;;;;;;;7.07;4.93;;;6.80;92.10;;;;;;5074347;28;20056;-69
2020/12/31 10:14:41;;;;;;;9.63;5.05;;;6.90;92.00;;;;;;5075808;28;20104;-69
2020/12/31 10:17:07;;;;;;;9.18;4.90;;;6.90;91.70;;;;;;5073323;28;20640;-69
2020/12/31 10:19:33;;;;;;;7.97;5.03;;;6.90;91.50;;;;;;5070753;28;20028;-69
2020/12/31 10:21:58;;;;;;;8.80;5.40;;;6.90;91.60;;;;;;5070334;28;20516;-69
2020/12/31 10:24:24;;;;;;;6.40;4.45;;;7.00;91.60;;;;;;5072028;28;20024;-69
2020/12/31 10:26:49;;;;;;;8.05;4.72;;;7.00;91.50;;;;;;5069868;28;20052;-69
2020/12/31 10:29:15;;;;;;;7.03;4.35;;;7.00;91.50;;;;;;5074521;28;20029;-69
2020/12/31 10:31:42;;;;;;;7.25;5.30;;;7.10;91.50;;;;;;5071140;28;20020;-69
2020/12/31 10:34:09;;;;;;;6.90;4.72;;;7.10;91.20;;;;;;5081325;28;20028;-68
2020/12/31 10:36:34;;;;;;;7.78;4.43;;;7.10;91.30;;;;;;5074687;28;20036;-69
2020/12/31 10:39:01;;;;;;;8.95;5.55;;;7.10;91.20;;;;;;5071213;28;20028;-69
2020/12/31 10:41:27;;;;;;;8.13;4.72;;;7.20;91.10;;;;;;5071276;28;20025;-70
2020/12/31 10:43:53;;;;;;;6.18;4.22;;;7.20;91.10;;;;;;5079903;28;20487;-69
2020/12/31 10:46:23;;;;;;;8.07;4.85;;;7.20;91.10;;;;;;5084649;28;20059;-69
2020/12/31 10:48:48;;;;;;;6.82;4.95;;;7.30;91.00;;;;;;5070907;28;20423;-69
2020/12/31 10:51:14;;;;;;;9.00;5.40;;;7.30;90.80;;;;;;5071346;28;20158;-70
2020/12/31 10:53:39;;;;;;;5.93;4.45;;;7.30;90.70;;;;;;5072691;28;20059;-70
2020/12/31 10:56:05;;;;;;;8.15;4.75;;;7.30;90.70;;;;;;5071107;28;20465;-70
2020/12/31 10:58:31;;;;;;;6.03;4.40;;;7.30;90.60;;;;;;5076387;28;20081;-69
2020/12/31 11:00:57;;;;;;;6.97;4.72;;;7.40;90.60;;;;;;5091344;28;20024;-69
2020/12/31 11:03:22;;;;;;;6.43;4.43;;;7.40;90.50;;;;;;5089542;28;20031;-69
2020/12/31 11:05:48;;;;;;;6.35;4.47;;;7.40;90.40;;;;;;5075131;28;20028;-69
2020/12/31 11:08:13;;;;;;;6.40;4.53;;;7.50;90.20;;;;;;5077544;28;20016;-70
2020/12/31 11:10:39;;;;;;;6.30;4.20;;;7.50;90.20;;;;;;5095230;28;20028;-70
2020/12/31 11:13:05;;;;;;;8.40;4.88;;;7.60;90.20;;;;;;5077118;28;20029;-69
2020/12/31 11:15:30;;;;;;;6.97;4.68;;;7.60;90.10;;;;;;5075052;28;20508;-69
2020/12/31 11:17:56;;;;;;;6.45;4.82;;;7.70;90.00;;;;;;5074650;28;20036;-69
2020/12/31 11:20:21;;;;;;;6.43;4.32;;;7.70;89.30;;;;;;5074513;28;20417;-69
2020/12/31 11:22:49;;;;;;;6.72;4.50;;;7.70;88.90;;;;;;5074277;28;20492;-69
2020/12/31 11:25:15;;;;;;;9.10;5.18;;;7.70;88.60;;;;;;5094589;28;20035;-69
2020/12/31 11:27:40;;;;;;;7.50;5.05;;;7.70;88.50;;;;;;5094032;28;20020;-69
2020/12/31 11:30:06;;;;;;;6.07;4.35;;;7.70;88.40;;;;;;5078754;28;20024;-69
2020/12/31 11:32:36;;;;;;;5.90;4.38;;;7.70;88.40;;;;;;5093495;28;20055;-70
2020/12/31 11:35:01;;;;;;;5.68;3.85;;;7.70;88.20;;;;;;5093237;28;20039;-70
2020/12/31 11:37:27;;;;;;;6.40;4.50;;;7.70;88.00;;;;;;5087938;28;20036;-70
2020/12/31 11:39:52;;;;;;;8.45;4.95;;;7.70;87.90;;;;;;5075068;28;20384;-69
2020/12/31 11:42:17;;;;;;;6.93;4.50;;;7.60;87.80;;;;;;5075363;28;20104;-70
2020/12/31 11:44:43;;;;;;;7.35;5.13;;;7.70;87.90;;;;;;5092516;28;20513;-69
2020/12/31 11:47:09;;;;;;;7.95;4.60;;;7.60;88.00;;;;;;5084254;28;20044;-69
2020/12/31 11:49:35;;;;;;;6.00;4.60;;;7.70;88.00;;;;;;5093034;28;20109;-69
2020/12/31 11:52:00;;;;;;;6.03;4.47;;;7.70;87.90;;;;;;5082783;28;20020;-69
2020/12/31 11:54:26;;;;;;;6.57;4.70;;;7.70;87.70;;;;;;5074079;28;20071;-70
2020/12/31 11:56:51;;;;;;;7.40;4.88;;;7.60;87.80;;;;;;5073475;28;20083;-69
2020/12/31 11:59:17;;;;;;;7.50;5.22;;;7.70;87.90;;;;;;5079092;28;20032;-69
2020/12/31 12:01:50;;;;;;;8.40;4.93;;;7.70;87.80;;;;;;5075368;28;20485;-68
2020/12/31 12:04:16;;;;;;;7.13;4.68;;;7.70;87.60;;;;;;5086890;28;20039;-71
2020/12/31 12:06:47;;;;;;;6.93;4.85;;;7.70;87.40;;;;;;5095254;28;20048;-68
2020/12/31 12:09:13;;;;;;;7.18;4.82;;;7.60;87.70;;;;;;5080052;28;20109;-70
2020/12/31 12:11:38;;;;;;;7.90;5.78;;;7.70;87.60;;;;;;5077124;28;20020;-70
2020/12/31 12:14:04;;;;;;;8.43;5.40;;;7.70;87.40;;;;;;5077101;28;20385;-70
2020/12/31 12:16:29;;;;;;;7.15;4.90;;;7.60;87.00;;;;;;5060069;28;20036;-72
2020/12/31 12:18:55;;;;;;;6.70;4.82;;;7.60;87.20;;;;;;5075893;28;20115;-70
2020/12/31 12:21:20;;;;;;;6.85;5.13;;;7.60;87.30;;;;;;5083707;28;20020;-71
2020/12/31 12:23:46;;;;;;;7.90;5.68;;;7.60;87.40;;;;;;5075816;28;20024;-68
2020/12/31 12:26:11;;;;;;;7.10;5.35;;;7.50;87.20;;;;;;5074071;28;20476;-68
2020/12/31 12:28:37;;;;;;;7.65;4.90;;;7.60;87.10;;;;;;5074309;28;20170;-67
2020/12/31 12:31:03;;;;;;;9.27;5.85;;;7.60;87.00;;;;;;5073807;28;20128;-69
2020/12/31 12:33:28;;;;;;;7.32;5.35;;;7.60;87.00;;;;;;5073736;28;20465;-67
2020/12/31 12:35:54;;;;;;;7.75;4.75;;;7.60;86.90;;;;;;5089495;28;20111;-67
2020/12/31 12:38:19;;;;;;;9.13;5.55;;;7.60;86.70;;;;;;5072581;28;20400;-66
2020/12/31 12:40:45;;;;;;;7.38;5.90;;;7.60;86.50;;;;;;5072953;28;20024;-66
2020/12/31 12:43:10;;;;;;;6.20;4.53;;;7.60;86.50;;;;;;5071673;28;20211;-66
2020/12/31 12:45:36;;;;;;;6.70;4.38;;;7.60;86.60;;;;;;5087138;28;20366;-67
2020/12/31 12:48:01;;;;;;;8.82;5.10;;;7.60;86.60;;;;;;5088382;28;20066;-66
2020/12/31 12:50:26;;;;;;;7.80;4.70;;;7.70;86.30;;;;;;5073323;28;20439;-66
2020/12/31 12:52:52;;;;;;;7.40;5.10;;;7.70;86.20;;;;;;5072790;28;20016;-68